Relevés horaires Bierset (Belgique)


Relevés horaires à Bierset - Mercredi 10 Nov. 2021
Heure UTC1 Température [°C] Vent [km/h] Hum. [%] Pres.4 [hPa] Visi. [Km] Nébu. [octa] Préc.5 [mm] Cond.
2m. Res. Ros. Dir.2 Vit. Moy. Raf.3
23:00 2.7 2.7 2.4 SO 1.9 5.6 7.4 98 1025.7(0.2/3h) 7 1/8 -- --
22:00 3.5 2.1 2.6 SSE 5.6 5.6 14.8 94 1025.7(0.0/3h) 8 1/8 -- --
21:00 3.0 3.0 2.3 SO 1.9 3.7 7.4 95 1025.7(0.1/3h) 9 1/8 -- --
20:00 4.9 4.9 2.8 E 1.9 3.7 7.4 86 1025.3(0.1/3h) 12 1/8 -- --
19:00 5.3 5.3 3.3 SE 3.7 3.7 7.4 87 1025.5(0.5/3h) 13 1/8 -- --
18:00 6.0 6.0 3.7 N 1.9 3.7 13.0 85 1025.3(0.8/3h) 14 1/8 0/12h
--
17:00 6.1 6.1 3.0 NNO 1.9 1.9 1.9 80 1025.1(0.4/3h) 16 1/8 -- --
16:00 7.8 7.8 3.3 ONO 1.9 3.7 3.7 73 1024.8(0.0/3h) 25 2/8 -- --
15:00 9.3 9.3 3.9 ONO 1.9 3.7 13.0 69 1024.2(-0.7/3h) 28 3/8 -- --
14:00 10.1 10.1 3.4 SSO 3.7 3.7 13.0 63 1024.4(-1.2/3h) 28 5/8 -- --
13:00 9.7 9.7 3.1 S 3.7 3.7 13.0 63 1024.6(-0.9/3h) 25 7/8 -- --
12:00 8.9 8.9 3.1 SSE 3.7 7.4 14.8 67 1025(-0.5/3h) 25 7/8 0/6h
--
11:00 7.8 7.8 3.5 S 3.7 5.6 11.1 74 1025.8(0.0/3h) 22 7/8 -- --
10:00 6.3 6.3 2.7 SSE 3.7 5.6 14.8 78 1025.8(0.7/3h) 22 7/8 -- --
09:00 3.6 2.3 1.5 SSE 5.6 7.4 13.0 86 1025.9(0.8/3h) 18 6/8 -- --
08:00 2.5 1 0.8 SSE 5.6 7.4 9.3 89 1026.1(0.5/3h) 16 5/8 -- --
07:00 2.0 2.0 0.5 S 3.7 3.7 9.3 90 1025.5(-0.3/3h) 20 4/8 -- --
06:00 3.0 3.0 0.7 S 3.7 7.4 18.5 85 1025.1(-0.5/3h) 20 3/8 0/12h
--
05:00 2.9 2.9 1.1 S 3.7 5.6 18.5 88 1025.5(0.1/3h) 20 1/8 -- --
04:00 3.6 2.3 1.4 SSE 5.6 7.4 13.0 85 1025.7(-0.3/3h) 20 1/8 -- --
03:00 3.3 1.9 1.5 SSE 5.6 7.4 14.8 88 1025.6(-0.7/3h) 20 1/8 -- --
02:00 3.8 2.5 1.6 SSE 5.6 7.4 14.8 86 1025.5(-1.3/3h) 20 1/8 -- --
01:00 3.3 1.9 2.2 SE 5.6 7.4 14.8 92 1026(-0.9/3h) 12 1/8 -- --
00:00 5.0 3.9 2.0 SSE 5.6 5.6 13.0 81 1026.1(-0.7/3h) 20 1/8 0/6h
0/24h
--

1 Coordinated Universal Time. Actuellement il est 23:00 locale et 21:00 UTC.

2 Le vent souffle depuis la direction indiquée vers la direction oposée.

3 Les rafales max. sont disponible 40 min après l'heure du relevé.

4 Pour les stations d'altitude (plus de 600m) le géopotentiel du niveau le plus proche de la pression obligatoire est indiqué.

5 Les stations disposant d'un diffuseur peuvent indiquer "trace". Cela signifie que des précipitations ont touchés le sol mais que la quantité est inférieure à 0.1 mm.

Récapitulatif de la journée
Température [°C] Vent [km/h] Ensoleillement4 [h] Precipitations totale5 [mm] Pression [Hpa]
Min1 Max.2 Moy.3 Max. Min Max.
2.3 10.3 5.3 18.5 0 h 0 min 0 1024.2 1026.1

1 Température minimale relevée entre 18:00 UTC la veille et 18:00 UTC le jour donné.

2 Température maximale relevée entre 06:00 UTC le jour donné et 06:00 UTC le lendemain.

3 Vent moyen de la journée basé sur les relevés horaires.

4 Ensoleillement en heures relevé entre 06:00 UTC la veille et 06:00 UTC le jour donné.

5 Précipitations totales tombées entre 06:00 UTC la jour donné et 06:00 UTC le lendemain.

Graphiques horaires